Latest Coastal Weather Observations for Warruwi

IDD60701

Issued at 6:31 am CST Monday 21 September 2020 (issued every 10 minutes, with the page automatically refreshed every 10 minutes)

About coastal observations | Map of coastal stations | Coastal observations for NT | Marine services | Other Formats
Station Details ID: 014401 Name: WARRUWI AIRPORT Lat: -11.65 Lon: 133.38 Height: 19.2 m
Data from the previous 72 hours. | See also: Recent months at Warruwi
Date/Time
CST
Wind Sea
Height
m
Swell Vis
km
Cloud Weather Temp
°C
Press
hPa
Rain since
9am
mm
Dir  Spd
kts
Gust
kts
Height
m
Period
s
Dir
21/06:30am ENE 3 6 - - - - - - - 26.1 1011.9 0.2
21/06:00am ENE 4 6 - - - - - - - 26.2 1011.5 0.2
21/05:30am ENE 5 9 - - - - - - - 26.3 1011.3 0.2
21/05:00am ENE 6 10 - - - - - - - 26.2 1010.8 0.2
21/04:30am ENE 5 8 - - - - - - - 26.2 1010.5 0.2
21/04:00am ENE 4 8 - - - - - - - 26.1 1010.5 0.2
21/03:30am ENE 5 9 - - - - - - - 26.2 1010.4 0.2
21/03:00am ENE 5 9 - - - - - - - 26.4 1010.6 0.2
21/02:30am E 6 9 - - - - - - - 26.5 1010.6 0.2
21/02:00am ENE 7 10 - - - - - - - 26.5 1010.6 0.2
21/01:30am ENE 6 11 - - - - - - - 26.6 1011.0 0.2
21/01:00am ENE 5 8 - - - - - - - 26.5 1011.2 0.2
21/12:30am ENE 4 7 - - - - - - - 26.4 1011.5 0.2
21/12:00am ENE 5 10 - - - - - - - 26.5 1011.9 0.2
 
Date/Time
CST
Wind Sea
Height
m
Swell Vis
km
Cloud Weather Temp
°C
Press
hPa
Rain since
9am
mm
Dir  Spd
kts
Gust
kts
Height
m
Period
s
Dir
20/11:30pm ENE 5 9 - - - - - - - 26.5 1011.8 0.2
20/11:00pm ENE 5 7 - - - - - - - 26.6 1011.8 0.2
20/10:30pm ENE 5 9 - - - - - - - 26.7 1012.0 0.2
20/10:00pm NE 4 5 - - - - - - - 26.6 1012.2 0.2
20/09:30pm ENE 4 9 - - - - - - - 26.8 1012.1 0.2
20/09:00pm NE 5 8 - - - - - - - 26.8 1011.9 0.2
20/08:30pm NE 4 9 - - - - - - - 26.9 1011.5 0.2
20/08:00pm ENE 4 8 - - - - - - - 27.0 1010.9 0.2
20/07:30pm ENE 5 10 - - - - - - - 27.1 1010.8 0.2
20/07:00pm ENE 5 9 - - - - - - - 27.1 1010.3 0.2
20/06:30pm NE 6 12 - - - - - - - 27.4 1010.2 0.2
20/06:00pm NE 6 12 - - - - - - - 28.0 1009.9 0.2
20/05:30pm ENE 8 13 - - - - - - - 28.7 1009.7 0.2
20/05:00pm ENE 8 13 - - - - - - - 29.2 1009.5 0.2
20/04:30pm ENE 9 15 - - - - - - - 29.5 1009.5 0.2
20/04:00pm ENE 9 15 - - - - - - - 30.2 1009.6 0.2
20/03:30pm ENE 9 15 - - - - - - - 29.9 1009.8 0.2
20/03:00pm ENE 10 18 - - - - - - - 29.9 1010.0 0.2
20/02:30pm E 11 16 - - - - - - - 30.6 1010.3 0.2
20/02:00pm E 10 14 - - - - - - - 30.4 1010.5 0.2
20/01:30pm E 9 15 - - - - - - - 30.0 1010.9 0.2
20/01:00pm ENE 11 16 - - - - - - - 30.6 1011.4 0.2
20/12:30pm ENE 9 14 - - - - - - - 30.1 1011.7 0.2
20/12:00pm E 10 15 - - - - - - - 29.9 1012.3 0.2
20/11:30am E 11 15 - - - - - - - 29.7 1012.7 0.2
20/11:00am E 9 13 - - - - - - - 29.8 1013.1 0.2
20/10:30am ESE 9 13 - - - - - - - 29.4 1013.4 0.0
20/10:00am E 8 11 - - - - - - - 28.4 1013.4 0.0
20/09:30am E 9 13 - - - - - - - 28.4 1013.5 0.0
20/09:00am ESE 8 11 - - - - - - - 27.6 1013.5 1.0
20/08:30am E 7 9 - - - - - - - 27.1 1013.3 1.0
20/08:00am E 5 11 - - - - - - - 25.9 1013.0 1.0
20/07:30am E 7 13 - - - - - - - 26.3 1012.7 0.0
20/07:00am E 8 12 - - - - - - - 27.0 1012.3 0.0
20/06:30am E 9 13 - - - - - - - 27.0 1012.0 0.0
20/06:00am E 6 10 - - - - - - - 26.5 1011.6 0.0
20/05:30am E 7 13 - - - - - - - 27.0 1011.3 0.0
20/05:00am ENE 7 12 - - - - - - - 26.9 1011.0 0.0
20/04:30am E 9 15 - - - - - - - 26.9 1010.8 0.0
20/04:00am ENE 7 13 - - - - - - - 26.6 1010.7 0.0
20/03:30am ENE 8 15 - - - - - - - 26.7 1010.6 0.0
20/03:00am ENE 8 14 - - - - - - - 26.9 1011.0 0.0
20/02:30am ENE 8 13 - - - - - - - 26.9 1011.2 0.0
20/02:00am ENE 8 13 - - - - - - - 26.9 1011.2 0.0
20/01:30am ENE 7 13 - - - - - - - 26.8 1011.3 0.0
20/01:00am E 10 16 - - - - - - - 26.9 1011.6 0.0
20/12:30am ENE 8 13 - - - - - - - 27.0 1011.9 0.0
20/12:00am ENE 7 12 - - - - - - - 27.1 1012.0 0.0
 
Date/Time
CST
Wind Sea
Height
m
Swell Vis
km
Cloud Weather Temp
°C
Press
hPa
Rain since
9am
mm
Dir  Spd
kts
Gust
kts
Height
m
Period
s
Dir
19/11:30pm ENE 7 11 - - - - - - - 27.1 1012.1 0.0
19/11:00pm ENE 9 13 - - - - - - - 27.1 1012.1 0.0
19/10:30pm ENE 6 11 - - - - - - - 27.0 1012.0 0.0
19/10:00pm ENE 8 13 - - - - - - - 27.2 1012.0 0.0
19/09:30pm ENE 7 11 - - - - - - - 27.1 1011.7 0.0
19/09:00pm ENE 6 11 - - - - - - - 27.1 1011.4 0.0
19/08:30pm ENE 7 11 - - - - - - - 27.1 1011.2 0.0
19/08:00pm ENE 8 12 - - - - - - - 27.2 1011.0 0.0
19/07:30pm ENE 6 11 - - - - - - - 27.3 1010.7 0.0
19/07:00pm ENE 6 10 - - - - - - - 27.3 1010.3 0.0
19/06:30pm ENE 7 11 - - - - - - - 27.5 1010.1 0.0
19/06:00pm ENE 8 13 - - - - - - - 28.0 1009.9 0.0
19/05:30pm E 10 15 - - - - - - - 28.6 1009.8 0.0
19/05:00pm E 8 13 - - - - - - - 29.7 1009.7 0.0
19/04:30pm E 9 16 - - - - - - - 29.4 1009.6 0.0
19/04:00pm E 12 17 - - - - - - - 29.4 1009.7 0.0
19/03:30pm E 11 16 - - - - - - - 30.3 1010.0 0.0
19/03:00pm E 10 16 - - - - - - - 30.4 1010.3 0.0
19/02:30pm E 11 16 - - - - - - - 30.4 1010.6 0.0
19/02:00pm E 9 15 - - - - - - - 30.9 1010.9 0.0
19/01:30pm E 10 16 - - - - - - - 31.1 1011.4 0.0
19/01:00pm E 10 17 - - - - - - - 29.6 1011.9 0.0
19/12:30pm E 10 15 - - - - - - - 30.3 1012.3 0.0
19/12:00pm E 11 17 - - - - - - - 29.6 1012.9 0.0
19/11:30am E 9 15 - - - - - - - 29.6 1013.4 0.0
19/11:00am E 10 15 - - - - - - - 30.2 1013.7 0.0
19/10:30am E 10 15 - - - - - - - 29.7 1014.0 0.0
19/10:00am E 9 15 - - - - - - - 29.1 1014.2 0.0
19/09:30am E 9 14 - - - - - - - 29.4 1014.4 0.0
19/09:00am E 9 13 - - - - - - - 28.2 1014.2 0.6
19/08:30am E 9 12 - - - - - - - 27.9 1014.0 0.6
19/08:00am E 9 13 - - - - - - - 27.9 1013.6 0.6
19/07:30am E 8 12 - - - - - - - 27.1 1013.2 0.6
19/07:00am E 8 12 - - - - - - - 26.7 1012.9 0.6
19/06:30am E 6 13 - - - - - - - 26.1 1012.3 0.6
19/06:00am ENE 7 10 - - - - - - - 26.6 1012.0 0.0
19/05:30am ENE 7 13 - - - - - - - 26.9 1011.7 0.0
19/05:00am E 8 14 - - - - - - - 27.0 1011.4 0.0
19/04:30am ENE 7 11 - - - - - - - 26.9 1010.9 0.0
19/04:00am ENE 6 10 - - - - - - - 26.9 1010.8 0.0
19/03:30am E 8 13 - - - - - - - 26.7 1011.0 0.0
19/03:00am ENE 7 11 - - - - - - - 27.0 1011.0 0.0
19/02:30am ENE 7 13 - - - - - - - 27.0 1011.3 0.0
19/02:00am ENE 8 13 - - - - - - - 27.0 1011.7 0.0
19/01:30am ENE 5 10 - - - - - - - 26.9 1012.2 0.0
19/01:00am E 6 11 - - - - - - - 27.0 1012.4 0.0
19/12:30am E 9 13 - - - - - - - 27.0 1012.7 0.0
19/12:00am E 9 14 - - - - - - - 27.0 1012.6 0.0
 
Date/Time
CST
Wind Sea
Height
m
Swell Vis
km
Cloud Weather Temp
°C
Press
hPa
Rain since
9am
mm
Dir  Spd
kts
Gust
kts
Height
m
Period
s
Dir
18/11:30pm ENE 9 16 - - - - - - - 27.1 1012.7 0.0
18/11:00pm ENE 8 11 - - - - - - - 27.2 1012.6 0.0
18/10:30pm ENE 8 14 - - - - - - - 27.2 1012.4 0.0
18/10:00pm ENE 8 13 - - - - - - - 27.3 1012.3 0.0
18/09:30pm E 9 17 - - - - - - - 27.4 1012.2 0.0
18/09:00pm ENE 7 13 - - - - - - - 27.2 1011.9 0.0
18/08:30pm ENE 7 11 - - - - - - - 27.3 1011.6 0.0
18/08:00pm ENE 6 10 - - - - - - - 27.3 1011.5 0.0
18/07:30pm ENE 5 9 - - - - - - - 27.4 1011.4 0.0
18/07:00pm ENE 7 13 - - - - - - - 27.4 1011.2 0.0
18/06:30pm ENE 6 10 - - - - - - - 27.7 1010.9 0.0
18/06:00pm ENE 7 14 - - - - - - - 28.3 1011.0 0.0
18/05:30pm ENE 8 14 - - - - - - - 28.7 1010.7 0.0
18/05:00pm E 9 12 - - - - - - - 29.1 1010.5 0.0
18/04:30pm E 8 12 - - - - - - - 29.7 1010.5 0.0
18/04:00pm E 9 12 - - - - - - - 29.5 1010.7 0.0
18/03:30pm E 10 13 - - - - - - - 30.2 1011.1 0.0
18/03:00pm E 10 16 - - - - - - - 30.1 1011.2 0.0
18/02:30pm E 10 16 - - - - - - - 30.0 1011.6 0.0
18/02:00pm E 11 16 - - - - - - - 29.8 1012.1 0.0
18/01:30pm E 10 15 - - - - - - - 30.4 1012.6 0.0
18/01:00pm E 9 14 - - - - - - - 30.1 1013.0 0.0
18/12:30pm E 9 15 - - - - - - - 30.4 1013.4 0.0
18/12:00pm E 9 15 - - - - - - - 30.1 1013.9 0.0
18/11:30am ENE 9 14 - - - - - - - 29.8 1014.4 0.0
18/11:00am E 7 12 - - - - - - - 29.3 1014.6 0.0
18/10:30am E 8 12 - - - - - - - 29.6 1014.8 0.0
18/10:00am ESE 7 11 - - - - - - - 29.7 1014.8 0.0
18/09:30am ESE 5 9 - - - - - - - 29.7 1014.6 0.0
18/09:00am SE 5 7 - - - - - - - 28.8 1014.3 0.0
18/08:30am SSE 5 7 - - - - - - - 27.7 1014.1 0.0
18/08:00am SSE 5 8 - - - - - - - 26.8 1013.9 0.0
18/07:30am SE 5 7 - - - - - - - 26.3 1013.5 0.0
18/07:00am SE 4 7 - - - - - - - 26.4 1013.1 0.0

Other formats

Comma delimited format used in spreadsheet applications
http://www.bom.gov.au/fwo/IDD60701/IDD60701.94139.axf

JavaScript Object Notation format (JSON) in row-major order
http://www.bom.gov.au/fwo/IDD60701/IDD60701.94139.json

Data quality

Most of these data are generated automatically and are frequently updated. Quality checks on data are not normally performed. It is possible for incorrect values to appear. Refer to information at About Latest Weather Observations and please check the disclaimer before using these data.